Terminal Aerodrome Forecast
Issued by NWS

Home | Current Version | Previous Version | Text Only | Print | Product List | Glossary On
Versions: 1 2 3 4 5 6 7 8 9 10 11 12
282
FTUS43 KGRR 261111 AAB
TAFJXN
TAF AMD
KJXN 261111Z 2611/2706 20007KT P6SM SCT050
     FM261900 20010G18KT 5SM -TSRA BR BKN050CB
     FM262300 19009KT P6SM SCT050
     FM270400 17004KT 4SM BR BKN250=

USA.gov is the U.S. government's official web portal to all federal, state and local government web resources and services.